sensor_id;sensor_type;location;lat;lon;timestamp;temperature;humidity
73829;SHT30;62176;48.450;-4.466;2022-08-19T00:01:29;19.57;86.73
73829;SHT30;62176;48.450;-4.466;2022-08-19T00:03:59;19.55;86.72
73829;SHT30;62176;48.450;-4.466;2022-08-19T00:06:27;19.59;86.63
73829;SHT30;62176;48.450;-4.466;2022-08-19T00:08:52;19.61;86.57
73829;SHT30;62176;48.450;-4.466;2022-08-19T00:11:18;19.61;86.49
73829;SHT30;62176;48.450;-4.466;2022-08-19T00:13:44;19.63;86.47
73829;SHT30;62176;48.450;-4.466;2022-08-19T00:16:11;19.59;86.61
73829;SHT30;62176;48.450;-4.466;2022-08-19T00:18:36;19.61;86.43
73829;SHT30;62176;48.450;-4.466;2022-08-19T00:21:02;19.59;86.54
73829;SHT30;62176;48.450;-4.466;2022-08-19T00:23:28;19.57;86.56
73829;SHT30;62176;48.450;-4.466;2022-08-19T00:25:54;19.58;86.63
73829;SHT30;62176;48.450;-4.466;2022-08-19T00:28:19;19.59;86.56
73829;SHT30;62176;48.450;-4.466;2022-08-19T00:30:46;19.55;86.73
73829;SHT30;62176;48.450;-4.466;2022-08-19T00:33:11;19.55;86.67
73829;SHT30;62176;48.450;-4.466;2022-08-19T00:35:37;19.57;86.55
73829;SHT30;62176;48.450;-4.466;2022-08-19T00:38:04;19.59;86.52
73829;SHT30;62176;48.450;-4.466;2022-08-19T00:40:30;19.58;86.43
73829;SHT30;62176;48.450;-4.466;2022-08-19T00:42:56;19.61;86.44
73829;SHT30;62176;48.450;-4.466;2022-08-19T00:45:24;19.55;86.40
73829;SHT30;62176;48.450;-4.466;2022-08-19T00:47:50;19.57;86.33
73829;SHT30;62176;48.450;-4.466;2022-08-19T00:50:18;19.52;86.50
73829;SHT30;62176;48.450;-4.466;2022-08-19T00:52:47;19.45;86.61
73829;SHT30;62176;48.450;-4.466;2022-08-19T00:55:19;19.47;86.55
73829;SHT30;62176;48.450;-4.466;2022-08-19T00:57:53;19.44;86.69
73829;SHT30;62176;48.450;-4.466;2022-08-19T01:00:20;19.39;86.75
73829;SHT30;62176;48.450;-4.466;2022-08-19T01:02:46;19.39;86.73
73829;SHT30;62176;48.450;-4.466;2022-08-19T01:05:16;19.38;86.72
73829;SHT30;62176;48.450;-4.466;2022-08-19T01:07:43;19.36;86.90
73829;SHT30;62176;48.450;-4.466;2022-08-19T01:10:12;19.38;86.84
73829;SHT30;62176;48.450;-4.466;2022-08-19T01:12:39;19.36;86.77
73829;SHT30;62176;48.450;-4.466;2022-08-19T01:15:07;19.34;86.80
73829;SHT30;62176;48.450;-4.466;2022-08-19T01:17:35;19.38;86.75
73829;SHT30;62176;48.450;-4.466;2022-08-19T01:20:03;19.36;86.78
73829;SHT30;62176;48.450;-4.466;2022-08-19T01:22:39;19.32;86.92
73829;SHT30;62176;48.450;-4.466;2022-08-19T01:25:08;19.35;86.93
73829;SHT30;62176;48.450;-4.466;2022-08-19T01:27:41;19.35;86.84
73829;SHT30;62176;48.450;-4.466;2022-08-19T01:30:08;19.38;86.76
73829;SHT30;62176;48.450;-4.466;2022-08-19T01:32:34;19.35;86.79
73829;SHT30;62176;48.450;-4.466;2022-08-19T01:35:02;19.35;86.72
73829;SHT30;62176;48.450;-4.466;2022-08-19T01:37:28;19.32;86.81
73829;SHT30;62176;48.450;-4.466;2022-08-19T01:39:54;19.32;86.80
73829;SHT30;62176;48.450;-4.466;2022-08-19T01:42:19;19.34;86.80
73829;SHT30;62176;48.450;-4.466;2022-08-19T01:44:44;19.28;86.87
73829;SHT30;62176;48.450;-4.466;2022-08-19T01:47:10;19.29;86.89
73829;SHT30;62176;48.450;-4.466;2022-08-19T01:49:36;19.24;86.86
73829;SHT30;62176;48.450;-4.466;2022-08-19T01:52:03;19.25;86.95
73829;SHT30;62176;48.450;-4.466;2022-08-19T01:54:28;19.25;86.86
73829;SHT30;62176;48.450;-4.466;2022-08-19T01:57:08;19.21;86.96
73829;SHT30;62176;48.450;-4.466;2022-08-19T01:59:36;19.22;86.85
73829;SHT30;62176;48.450;-4.466;2022-08-19T02:02:03;19.24;86.59
73829;SHT30;62176;48.450;-4.466;2022-08-19T02:04:31;19.25;86.65
73829;SHT30;62176;48.450;-4.466;2022-08-19T02:06:57;19.21;86.77
73829;SHT30;62176;48.450;-4.466;2022-08-19T02:09:22;19.18;86.88
73829;SHT30;62176;48.450;-4.466;2022-08-19T02:11:48;19.19;86.80
73829;SHT30;62176;48.450;-4.466;2022-08-19T02:14:13;19.21;86.73
73829;SHT30;62176;48.450;-4.466;2022-08-19T02:16:39;19.22;86.68
73829;SHT30;62176;48.450;-4.466;2022-08-19T02:19:05;19.24;86.66
73829;SHT30;62176;48.450;-4.466;2022-08-19T02:21:31;19.18;86.69
73829;SHT30;62176;48.450;-4.466;2022-08-19T02:23:57;19.18;86.69
73829;SHT30;62176;48.450;-4.466;2022-08-19T02:26:22;19.15;86.71
73829;SHT30;62176;48.450;-4.466;2022-08-19T02:28:48;19.10;86.81
73829;SHT30;62176;48.450;-4.466;2022-08-19T02:31:17;19.10;86.82
73829;SHT30;62176;48.450;-4.466;2022-08-19T02:33:44;19.15;86.65
73829;SHT30;62176;48.450;-4.466;2022-08-19T02:36:11;19.14;86.69
73829;SHT30;62176;48.450;-4.466;2022-08-19T02:38:37;19.11;86.64
73829;SHT30;62176;48.450;-4.466;2022-08-19T02:41:05;19.12;86.63
73829;SHT30;62176;48.450;-4.466;2022-08-19T02:43:33;19.14;86.63
73829;SHT30;62176;48.450;-4.466;2022-08-19T02:46:20;19.11;86.67
73829;SHT30;62176;48.450;-4.466;2022-08-19T02:48:51;19.15;86.57
73829;SHT30;62176;48.450;-4.466;2022-08-19T02:51:20;19.11;86.55
73829;SHT30;62176;48.450;-4.466;2022-08-19T02:53:46;19.10;86.51
73829;SHT30;62176;48.450;-4.466;2022-08-19T02:56:11;19.03;86.47
73829;SHT30;62176;48.450;-4.466;2022-08-19T02:58:37;19.04;86.45
73829;SHT30;62176;48.450;-4.466;2022-08-19T03:01:03;19.06;86.39
73829;SHT30;62176;48.450;-4.466;2022-08-19T03:03:28;19.03;86.31
73829;SHT30;62176;48.450;-4.466;2022-08-19T03:06:10;19.00;86.42
73829;SHT30;62176;48.450;-4.466;2022-08-19T03:08:36;18.98;86.36
73829;SHT30;62176;48.450;-4.466;2022-08-19T03:11:02;18.98;86.36
73829;SHT30;62176;48.450;-4.466;2022-08-19T03:13:28;19.01;86.18
73829;SHT30;62176;48.450;-4.466;2022-08-19T03:15:54;19.00;86.09
73829;SHT30;62176;48.450;-4.466;2022-08-19T03:18:19;18.96;86.29
73829;SHT30;62176;48.450;-4.466;2022-08-19T03:20:48;18.91;86.36
73829;SHT30;62176;48.450;-4.466;2022-08-19T03:23:15;18.91;86.33
73829;SHT30;62176;48.450;-4.466;2022-08-19T03:25:43;18.91;86.47
73829;SHT30;62176;48.450;-4.466;2022-08-19T03:28:14;18.87;86.63
73829;SHT30;62176;48.450;-4.466;2022-08-19T03:30:43;18.93;86.65
73829;SHT30;62176;48.450;-4.466;2022-08-19T03:33:09;18.96;86.54
73829;SHT30;62176;48.450;-4.466;2022-08-19T03:35:36;18.93;86.61
73829;SHT30;62176;48.450;-4.466;2022-08-19T03:38:03;18.96;86.65
73829;SHT30;62176;48.450;-4.466;2022-08-19T03:40:29;18.94;86.70
73829;SHT30;62176;48.450;-4.466;2022-08-19T03:42:56;18.98;86.70
73829;SHT30;62176;48.450;-4.466;2022-08-19T03:45:22;19.00;86.70
73829;SHT30;62176;48.450;-4.466;2022-08-19T03:47:47;19.00;86.79
73829;SHT30;62176;48.450;-4.466;2022-08-19T03:50:13;18.97;86.90
73829;SHT30;62176;48.450;-4.466;2022-08-19T03:52:38;18.97;86.88
73829;SHT30;62176;48.450;-4.466;2022-08-19T03:55:05;18.98;86.79
73829;SHT30;62176;48.450;-4.466;2022-08-19T03:57:30;19.00;86.85
73829;SHT30;62176;48.450;-4.466;2022-08-19T03:59:57;19.03;86.62
73829;SHT30;62176;48.450;-4.466;2022-08-19T04:02:23;19.04;86.54
73829;SHT30;62176;48.450;-4.466;2022-08-19T04:04:48;19.04;86.59
73829;SHT30;62176;48.450;-4.466;2022-08-19T04:07:14;19.08;86.38
73829;SHT30;62176;48.450;-4.466;2022-08-19T04:09:41;19.04;86.29
73829;SHT30;62176;48.450;-4.466;2022-08-19T04:12:07;19.10;86.22
73829;SHT30;62176;48.450;-4.466;2022-08-19T04:14:33;19.07;86.26
73829;SHT30;62176;48.450;-4.466;2022-08-19T04:17:00;19.06;86.17
73829;SHT30;62176;48.450;-4.466;2022-08-19T04:19:26;19.04;86.09
73829;SHT30;62176;48.450;-4.466;2022-08-19T04:21:53;19.04;86.01
73829;SHT30;62176;48.450;-4.466;2022-08-19T04:24:19;19.08;86.16
73829;SHT30;62176;48.450;-4.466;2022-08-19T04:26:46;19.11;86.05
73829;SHT30;62176;48.450;-4.466;2022-08-19T04:29:24;19.14;85.94
73829;SHT30;62176;48.450;-4.466;2022-08-19T04:31:51;19.14;85.79
73829;SHT30;62176;48.450;-4.466;2022-08-19T04:34:19;19.12;85.83
73829;SHT30;62176;48.450;-4.466;2022-08-19T04:36:47;19.14;85.91
73829;SHT30;62176;48.450;-4.466;2022-08-19T04:39:18;19.14;85.92
73829;SHT30;62176;48.450;-4.466;2022-08-19T04:41:44;19.14;85.98
73829;SHT30;62176;48.450;-4.466;2022-08-19T04:44:33;19.12;86.18
73829;SHT30;62176;48.450;-4.466;2022-08-19T04:46:59;19.15;86.26
73829;SHT30;62176;48.450;-4.466;2022-08-19T04:49:25;19.17;86.30
73829;SHT30;62176;48.450;-4.466;2022-08-19T04:51:52;19.18;86.27
73829;SHT30;62176;48.450;-4.466;2022-08-19T04:54:19;19.19;86.29
73829;SHT30;62176;48.450;-4.466;2022-08-19T04:56:48;19.21;86.70
73829;SHT30;62176;48.450;-4.466;2022-08-19T04:59:15;19.18;86.81
73829;SHT30;62176;48.450;-4.466;2022-08-19T05:01:42;19.25;86.49
73829;SHT30;62176;48.450;-4.466;2022-08-19T05:04:08;19.25;86.38
73829;SHT30;62176;48.450;-4.466;2022-08-19T05:06:35;19.25;86.58
73829;SHT30;62176;48.450;-4.466;2022-08-19T05:09:04;19.22;86.63
73829;SHT30;62176;48.450;-4.466;2022-08-19T05:11:33;19.22;86.73
73829;SHT30;62176;48.450;-4.466;2022-08-19T05:13:59;19.22;86.85
73829;SHT30;62176;48.450;-4.466;2022-08-19T05:16:25;19.14;87.48
73829;SHT30;62176;48.450;-4.466;2022-08-19T05:18:51;19.10;87.57
73829;SHT30;62176;48.450;-4.466;2022-08-19T05:21:36;19.10;87.69
73829;SHT30;62176;48.450;-4.466;2022-08-19T05:24:22;19.14;87.55
73829;SHT30;62176;48.450;-4.466;2022-08-19T05:26:50;19.04;88.23
73829;SHT30;62176;48.450;-4.466;2022-08-19T05:29:19;19.04;87.92
73829;SHT30;62176;48.450;-4.466;2022-08-19T05:31:47;19.06;87.96
73829;SHT30;62176;48.450;-4.466;2022-08-19T05:34:14;19.04;87.85
73829;SHT30;62176;48.450;-4.466;2022-08-19T05:36:42;19.03;88.04
73829;SHT30;62176;48.450;-4.466;2022-08-19T05:39:12;19.01;88.31
73829;SHT30;62176;48.450;-4.466;2022-08-19T05:41:46;18.96;88.75
73829;SHT30;62176;48.450;-4.466;2022-08-19T05:44:12;18.94;88.79
73829;SHT30;62176;48.450;-4.466;2022-08-19T05:46:39;18.96;88.62
73829;SHT30;62176;48.450;-4.466;2022-08-19T05:49:05;18.93;88.94
73829;SHT30;62176;48.450;-4.466;2022-08-19T05:51:31;18.94;88.74
73829;SHT30;62176;48.450;-4.466;2022-08-19T05:53:57;18.93;88.72
73829;SHT30;62176;48.450;-4.466;2022-08-19T05:56:23;18.88;89.01
73829;SHT30;62176;48.450;-4.466;2022-08-19T05:58:48;18.88;89.06
73829;SHT30;62176;48.450;-4.466;2022-08-19T06:01:17;18.90;89.07
73829;SHT30;62176;48.450;-4.466;2022-08-19T06:03:43;18.93;89.27
73829;SHT30;62176;48.450;-4.466;2022-08-19T06:06:11;18.94;89.70
73829;SHT30;62176;48.450;-4.466;2022-08-19T06:08:38;18.88;90.39
73829;SHT30;62176;48.450;-4.466;2022-08-19T06:13:46;18.91;90.10
73829;SHT30;62176;48.450;-4.466;2022-08-19T06:16:15;18.96;90.04
73829;SHT30;62176;48.450;-4.466;2022-08-19T06:18:52;18.94;90.69
73829;SHT30;62176;48.450;-4.466;2022-08-19T06:21:22;18.96;90.76
73829;SHT30;62176;48.450;-4.466;2022-08-19T06:23:47;19.00;90.84
73829;SHT30;62176;48.450;-4.466;2022-08-19T06:26:14;19.01;90.82
73829;SHT30;62176;48.450;-4.466;2022-08-19T06:28:40;18.98;90.78
73829;SHT30;62176;48.450;-4.466;2022-08-19T06:31:09;18.98;90.80
73829;SHT30;62176;48.450;-4.466;2022-08-19T06:33:35;19.03;90.37
73829;SHT30;62176;48.450;-4.466;2022-08-19T06:36:01;19.00;90.71
73829;SHT30;62176;48.450;-4.466;2022-08-19T06:38:26;18.97;90.83
73829;SHT30;62176;48.450;-4.466;2022-08-19T06:41:00;18.97;90.66
73829;SHT30;62176;48.450;-4.466;2022-08-19T06:43:26;18.97;91.27
73829;SHT30;62176;48.450;-4.466;2022-08-19T06:45:51;18.96;90.98
73829;SHT30;62176;48.450;-4.466;2022-08-19T06:48:17;18.90;90.97
73829;SHT30;62176;48.450;-4.466;2022-08-19T06:50:42;18.87;91.44
73829;SHT30;62176;48.450;-4.466;2022-08-19T06:53:08;18.83;92.64
73829;SHT30;62176;48.450;-4.466;2022-08-19T06:55:33;18.78;92.72
73829;SHT30;62176;48.450;-4.466;2022-08-19T06:58:02;18.77;92.82
73829;SHT30;62176;48.450;-4.466;2022-08-19T07:00:28;18.73;92.94
73829;SHT30;62176;48.450;-4.466;2022-08-19T07:02:53;18.70;92.71
73829;SHT30;62176;48.450;-4.466;2022-08-19T07:05:19;18.66;92.90
73829;SHT30;62176;48.450;-4.466;2022-08-19T07:07:44;18.67;93.10
73829;SHT30;62176;48.450;-4.466;2022-08-19T07:10:10;18.61;93.29
73829;SHT30;62176;48.450;-4.466;2022-08-19T07:12:35;18.61;93.21
73829;SHT30;62176;48.450;-4.466;2022-08-19T07:15:03;18.61;93.40
73829;SHT30;62176;48.450;-4.466;2022-08-19T07:17:29;18.66;93.66
73829;SHT30;62176;48.450;-4.466;2022-08-19T07:19:54;18.63;94.02
73829;SHT30;62176;48.450;-4.466;2022-08-19T07:22:21;18.61;94.21
73829;SHT30;62176;48.450;-4.466;2022-08-19T07:24:49;18.59;94.41
73829;SHT30;62176;48.450;-4.466;2022-08-19T07:27:14;18.64;94.23
73829;SHT30;62176;48.450;-4.466;2022-08-19T07:29:41;18.64;94.05
73829;SHT30;62176;48.450;-4.466;2022-08-19T07:32:06;18.64;93.96
73829;SHT30;62176;48.450;-4.466;2022-08-19T07:34:32;18.63;94.24
73829;SHT30;62176;48.450;-4.466;2022-08-19T07:37:03;18.66;94.62
73829;SHT30;62176;48.450;-4.466;2022-08-19T07:39:31;18.67;95.06
73829;SHT30;62176;48.450;-4.466;2022-08-19T07:41:59;18.74;95.61
73829;SHT30;62176;48.450;-4.466;2022-08-19T07:44:25;18.73;95.16
73829;SHT30;62176;48.450;-4.466;2022-08-19T07:46:54;18.76;95.70
73829;SHT30;62176;48.450;-4.466;2022-08-19T07:49:22;18.71;95.02
73829;SHT30;62176;48.450;-4.466;2022-08-19T07:51:58;18.73;95.51
73829;SHT30;62176;48.450;-4.466;2022-08-19T07:54:28;18.74;95.19
73829;SHT30;62176;48.450;-4.466;2022-08-19T07:56:54;18.77;95.35
73829;SHT30;62176;48.450;-4.466;2022-08-19T07:59:20;18.80;95.40
73829;SHT30;62176;48.450;-4.466;2022-08-19T08:01:46;18.77;94.71
73829;SHT30;62176;48.450;-4.466;2022-08-19T08:04:13;18.84;94.80
73829;SHT30;62176;48.450;-4.466;2022-08-19T08:06:57;18.78;93.92
73829;SHT30;62176;48.450;-4.466;2022-08-19T08:09:43;18.74;93.71
73829;SHT30;62176;48.450;-4.466;2022-08-19T08:12:16;18.73;93.81
73829;SHT30;62176;48.450;-4.466;2022-08-19T08:14:48;18.73;93.37
73829;SHT30;62176;48.450;-4.466;2022-08-19T08:17:15;18.70;93.37
73829;SHT30;62176;48.450;-4.466;2022-08-19T08:19:43;18.70;93.87
73829;SHT30;62176;48.450;-4.466;2022-08-19T08:22:10;18.76;93.26
73829;SHT30;62176;48.450;-4.466;2022-08-19T08:24:55;18.71;93.21
73829;SHT30;62176;48.450;-4.466;2022-08-19T08:27:24;18.73;93.15
73829;SHT30;62176;48.450;-4.466;2022-08-19T08:29:49;18.71;93.15
73829;SHT30;62176;48.450;-4.466;2022-08-19T08:32:14;18.67;92.42
73829;SHT30;62176;48.450;-4.466;2022-08-19T08:34:40;18.66;92.99
73829;SHT30;62176;48.450;-4.466;2022-08-19T08:37:06;18.66;92.76
73829;SHT30;62176;48.450;-4.466;2022-08-19T08:39:31;18.66;93.39
73829;SHT30;62176;48.450;-4.466;2022-08-19T08:42:06;18.67;92.95
73829;SHT30;62176;48.450;-4.466;2022-08-19T08:47:04;18.73;93.43
73829;SHT30;62176;48.450;-4.466;2022-08-19T08:52:20;18.74;92.58
73829;SHT30;62176;48.450;-4.466;2022-08-19T08:54:48;18.76;92.76
73829;SHT30;62176;48.450;-4.466;2022-08-19T08:57:21;18.76;92.30
73829;SHT30;62176;48.450;-4.466;2022-08-19T08:59:50;18.71;91.51
73829;SHT30;62176;48.450;-4.466;2022-08-19T09:02:18;18.71;91.96
73829;SHT30;62176;48.450;-4.466;2022-08-19T09:04:43;18.74;92.56
73829;SHT30;62176;48.450;-4.466;2022-08-19T09:09:42;18.81;92.33
73829;SHT30;62176;48.450;-4.466;2022-08-19T09:14:58;18.81;92.30
73829;SHT30;62176;48.450;-4.466;2022-08-19T09:17:28;18.84;92.03
73829;SHT30;62176;48.450;-4.466;2022-08-19T09:22:33;18.84;91.07
73829;SHT30;62176;48.450;-4.466;2022-08-19T09:24:59;18.80;90.49
73829;SHT30;62176;48.450;-4.466;2022-08-19T09:27:26;18.76;91.78
73829;SHT30;62176;48.450;-4.466;2022-08-19T09:29:53;18.74;91.12
73829;SHT30;62176;48.450;-4.466;2022-08-19T09:32:19;18.71;90.58
73829;SHT30;62176;48.450;-4.466;2022-08-19T09:34:45;18.67;90.68
73829;SHT30;62176;48.450;-4.466;2022-08-19T09:37:13;18.67;90.57
73829;SHT30;62176;48.450;-4.466;2022-08-19T09:39:39;18.61;89.62
73829;SHT30;62176;48.450;-4.466;2022-08-19T09:42:09;18.63;90.55
73829;SHT30;62176;48.450;-4.466;2022-08-19T09:44:39;18.68;91.58
73829;SHT30;62176;48.450;-4.466;2022-08-19T09:47:05;18.68;90.48
73829;SHT30;62176;48.450;-4.466;2022-08-19T09:49:31;18.73;92.42
73829;SHT30;62176;48.450;-4.466;2022-08-19T09:51:57;18.83;91.93
73829;SHT30;62176;48.450;-4.466;2022-08-19T09:54:23;18.93;91.43
73829;SHT30;62176;48.450;-4.466;2022-08-19T09:56:49;18.98;90.48
73829;SHT30;62176;48.450;-4.466;2022-08-19T09:59:15;19.07;91.89
73829;SHT30;62176;48.450;-4.466;2022-08-19T10:01:40;19.18;90.91
73829;SHT30;62176;48.450;-4.466;2022-08-19T10:04:05;19.22;90.70
73829;SHT30;62176;48.450;-4.466;2022-08-19T10:06:36;19.27;89.25
73829;SHT30;62176;48.450;-4.466;2022-08-19T10:09:04;19.25;88.55
73829;SHT30;62176;48.450;-4.466;2022-08-19T10:11:32;19.31;89.96
73829;SHT30;62176;48.450;-4.466;2022-08-19T10:13:57;19.34;88.20
73829;SHT30;62176;48.450;-4.466;2022-08-19T10:16:24;19.35;88.15
73829;SHT30;62176;48.450;-4.466;2022-08-19T10:18:52;19.35;86.60
73829;SHT30;62176;48.450;-4.466;2022-08-19T10:21:22;19.36;86.82
73829;SHT30;62176;48.450;-4.466;2022-08-19T10:23:50;19.39;86.48
73829;SHT30;62176;48.450;-4.466;2022-08-19T10:26:20;19.29;83.97
73829;SHT30;62176;48.450;-4.466;2022-08-19T10:28:46;19.32;88.23
73829;SHT30;62176;48.450;-4.466;2022-08-19T10:31:32;19.32;84.33
73829;SHT30;62176;48.450;-4.466;2022-08-19T10:33:59;19.36;85.30
73829;SHT30;62176;48.450;-4.466;2022-08-19T10:36:31;19.34;84.81
73829;SHT30;62176;48.450;-4.466;2022-08-19T10:38:59;19.31;85.98
73829;SHT30;62176;48.450;-4.466;2022-08-19T10:41:30;19.35;86.28
73829;SHT30;62176;48.450;-4.466;2022-08-19T10:43:58;19.38;85.45
73829;SHT30;62176;48.450;-4.466;2022-08-19T10:46:26;19.36;84.06
73829;SHT30;62176;48.450;-4.466;2022-08-19T10:48:53;19.24;82.88
73829;SHT30;62176;48.450;-4.466;2022-08-19T10:51:20;19.18;80.77
73829;SHT30;62176;48.450;-4.466;2022-08-19T10:54:05;19.17;83.13
73829;SHT30;62176;48.450;-4.466;2022-08-19T10:56:32;19.12;84.18
73829;SHT30;62176;48.450;-4.466;2022-08-19T10:59:21;19.15;83.69
73829;SHT30;62176;48.450;-4.466;2022-08-19T11:01:47;19.17;83.51
73829;SHT30;62176;48.450;-4.466;2022-08-19T11:04:14;19.15;82.27
73829;SHT30;62176;48.450;-4.466;2022-08-19T11:06:47;19.18;83.29
73829;SHT30;62176;48.450;-4.466;2022-08-19T11:09:14;19.22;82.67
73829;SHT30;62176;48.450;-4.466;2022-08-19T11:11:40;19.24;82.08
73829;SHT30;62176;48.450;-4.466;2022-08-19T11:14:08;19.34;84.51
73829;SHT30;62176;48.450;-4.466;2022-08-19T11:16:35;19.42;81.49
73829;SHT30;62176;48.450;-4.466;2022-08-19T11:19:00;19.51;79.43
73829;SHT30;62176;48.450;-4.466;2022-08-19T11:21:30;19.63;80.84
73829;SHT30;62176;48.450;-4.466;2022-08-19T11:24:02;19.73;81.43
73829;SHT30;62176;48.450;-4.466;2022-08-19T11:26:30;19.79;76.95
73829;SHT30;62176;48.450;-4.466;2022-08-19T11:28:57;19.85;74.18
73829;SHT30;62176;48.450;-4.466;2022-08-19T11:31:29;19.89;76.15
73829;SHT30;62176;48.450;-4.466;2022-08-19T11:34:00;19.99;77.13
73829;SHT30;62176;48.450;-4.466;2022-08-19T11:36:27;20.06;78.75
73829;SHT30;62176;48.450;-4.466;2022-08-19T11:38:53;20.17;77.32
73829;SHT30;62176;48.450;-4.466;2022-08-19T11:41:20;20.32;76.52
73829;SHT30;62176;48.450;-4.466;2022-08-19T11:43:46;20.37;72.39
73829;SHT30;62176;48.450;-4.466;2022-08-19T11:46:13;20.46;72.78
73829;SHT30;62176;48.450;-4.466;2022-08-19T11:48:40;20.57;76.30
73829;SHT30;62176;48.450;-4.466;2022-08-19T11:51:09;20.64;72.64
73829;SHT30;62176;48.450;-4.466;2022-08-19T11:53:36;20.73;72.35
73829;SHT30;62176;48.450;-4.466;2022-08-19T11:56:03;20.83;70.42
73829;SHT30;62176;48.450;-4.466;2022-08-19T11:58:29;20.91;71.32
73829;SHT30;62176;48.450;-4.466;2022-08-19T12:00:54;21.04;68.49
73829;SHT30;62176;48.450;-4.466;2022-08-19T12:03:20;21.17;70.94
73829;SHT30;62176;48.450;-4.466;2022-08-19T12:05:45;21.24;67.41
73829;SHT30;62176;48.450;-4.466;2022-08-19T12:08:11;21.27;68.22
73829;SHT30;62176;48.450;-4.466;2022-08-19T12:10:39;21.35;66.15
73829;SHT30;62176;48.450;-4.466;2022-08-19T12:13:06;21.45;68.13
73829;SHT30;62176;48.450;-4.466;2022-08-19T12:15:36;21.60;68.15
73829;SHT30;62176;48.450;-4.466;2022-08-19T12:18:02;21.76;69.31
73829;SHT30;62176;48.450;-4.466;2022-08-19T12:20:28;21.88;66.77
73829;SHT30;62176;48.450;-4.466;2022-08-19T12:22:54;21.85;67.79
73829;SHT30;62176;48.450;-4.466;2022-08-19T12:25:19;21.79;63.60
73829;SHT30;62176;48.450;-4.466;2022-08-19T12:27:46;21.73;64.56
73829;SHT30;62176;48.450;-4.466;2022-08-19T12:30:13;21.82;65.96
73829;SHT30;62176;48.450;-4.466;2022-08-19T12:32:38;21.88;64.15
73829;SHT30;62176;48.450;-4.466;2022-08-19T12:35:05;22.02;67.13
73829;SHT30;62176;48.450;-4.466;2022-08-19T12:37:30;22.02;63.78
73829;SHT30;62176;48.450;-4.466;2022-08-19T12:39:57;22.09;64.33
73829;SHT30;62176;48.450;-4.466;2022-08-19T12:42:22;21.99;61.74
73829;SHT30;62176;48.450;-4.466;2022-08-19T12:44:48;21.94;64.78
73829;SHT30;62176;48.450;-4.466;2022-08-19T12:47:14;22.06;64.59
73829;SHT30;62176;48.450;-4.466;2022-08-19T12:49:40;22.26;64.61
73829;SHT30;62176;48.450;-4.466;2022-08-19T12:52:08;22.44;61.77
73829;SHT30;62176;48.450;-4.466;2022-08-19T12:54:35;22.50;59.49
73829;SHT30;62176;48.450;-4.466;2022-08-19T12:57:04;22.64;57.87
73829;SHT30;62176;48.450;-4.466;2022-08-19T12:59:30;22.71;58.07
73829;SHT30;62176;48.450;-4.466;2022-08-19T13:01:55;22.94;58.30
73829;SHT30;62176;48.450;-4.466;2022-08-19T13:04:21;23.04;57.52
73829;SHT30;62176;48.450;-4.466;2022-08-19T13:06:46;23.08;53.73
73829;SHT30;62176;48.450;-4.466;2022-08-19T13:09:11;23.14;56.49
73829;SHT30;62176;48.450;-4.466;2022-08-19T13:11:37;23.18;57.06
73829;SHT30;62176;48.450;-4.466;2022-08-19T13:14:03;23.35;58.09
73829;SHT30;62176;48.450;-4.466;2022-08-19T13:16:29;23.50;55.15
73829;SHT30;62176;48.450;-4.466;2022-08-19T13:18:55;23.60;56.60
73829;SHT30;62176;48.450;-4.466;2022-08-19T13:21:24;23.73;57.28
73829;SHT30;62176;48.450;-4.466;2022-08-19T13:23:50;23.84;54.00
73829;SHT30;62176;48.450;-4.466;2022-08-19T13:26:16;23.93;51.74
73829;SHT30;62176;48.450;-4.466;2022-08-19T13:28:43;24.03;51.93
73829;SHT30;62176;48.450;-4.466;2022-08-19T13:31:31;24.14;49.56
73829;SHT30;62176;48.450;-4.466;2022-08-19T13:34:18;24.20;50.79
73829;SHT30;62176;48.450;-4.466;2022-08-19T13:36:44;24.43;50.50
73829;SHT30;62176;48.450;-4.466;2022-08-19T13:39:10;24.54;43.85
73829;SHT30;62176;48.450;-4.466;2022-08-19T13:41:36;24.64;48.91
73829;SHT30;62176;48.450;-4.466;2022-08-19T13:44:03;24.71;48.10
73829;SHT30;62176;48.450;-4.466;2022-08-19T13:46:29;24.92;49.06
73829;SHT30;62176;48.450;-4.466;2022-08-19T13:48:55;25.11;47.46
73829;SHT30;62176;48.450;-4.466;2022-08-19T13:51:22;25.19;43.87
73829;SHT30;62176;48.450;-4.466;2022-08-19T13:53:48;25.25;42.42
73829;SHT30;62176;48.450;-4.466;2022-08-19T13:56:15;25.30;41.27
73829;SHT30;62176;48.450;-4.466;2022-08-19T13:58:41;25.33;43.13
73829;SHT30;62176;48.450;-4.466;2022-08-19T14:01:07;25.50;45.20
73829;SHT30;62176;48.450;-4.466;2022-08-19T14:03:34;25.63;43.74
73829;SHT30;62176;48.450;-4.466;2022-08-19T14:06:00;25.76;45.37
73829;SHT30;62176;48.450;-4.466;2022-08-19T14:08:27;25.82;47.53
73829;SHT30;62176;48.450;-4.466;2022-08-19T14:10:56;25.77;43.08
73829;SHT30;62176;48.450;-4.466;2022-08-19T14:13:22;25.79;46.06
73829;SHT30;62176;48.450;-4.466;2022-08-19T14:15:49;25.77;46.58
73829;SHT30;62176;48.450;-4.466;2022-08-19T14:18:15;25.83;46.51
73829;SHT30;62176;48.450;-4.466;2022-08-19T14:20:41;25.96;44.53
73829;SHT30;62176;48.450;-4.466;2022-08-19T14:23:07;26.00;44.33
73829;SHT30;62176;48.450;-4.466;2022-08-19T14:25:33;25.97;44.10
73829;SHT30;62176;48.450;-4.466;2022-08-19T14:27:59;26.00;44.29
73829;SHT30;62176;48.450;-4.466;2022-08-19T14:30:28;25.96;46.26
73829;SHT30;62176;48.450;-4.466;2022-08-19T14:32:55;26.03;45.54
73829;SHT30;62176;48.450;-4.466;2022-08-19T14:35:21;26.13;46.71
73829;SHT30;62176;48.450;-4.466;2022-08-19T14:37:48;26.18;47.96
73829;SHT30;62176;48.450;-4.466;2022-08-19T14:40:17;26.33;47.18
73829;SHT30;62176;48.450;-4.466;2022-08-19T14:42:45;26.27;44.08
73829;SHT30;62176;48.450;-4.466;2022-08-19T14:45:13;26.33;46.64
73829;SHT30;62176;48.450;-4.466;2022-08-19T14:47:39;26.35;42.68
73829;SHT30;62176;48.450;-4.466;2022-08-19T14:50:09;26.25;44.04
73829;SHT30;62176;48.450;-4.466;2022-08-19T14:52:35;26.44;46.67
73829;SHT30;62176;48.450;-4.466;2022-08-19T14:55:01;26.45;45.64
73829;SHT30;62176;48.450;-4.466;2022-08-19T14:57:27;26.45;45.80
73829;SHT30;62176;48.450;-4.466;2022-08-19T14:59:52;26.33;46.71
73829;SHT30;62176;48.450;-4.466;2022-08-19T15:02:18;26.35;45.56
73829;SHT30;62176;48.450;-4.466;2022-08-19T15:04:43;26.34;46.08
73829;SHT30;62176;48.450;-4.466;2022-08-19T15:07:09;26.40;46.32
73829;SHT30;62176;48.450;-4.466;2022-08-19T15:09:35;26.35;44.17
73829;SHT30;62176;48.450;-4.466;2022-08-19T15:12:01;26.31;43.81
73829;SHT30;62176;48.450;-4.466;2022-08-19T15:14:28;26.23;45.57
73829;SHT30;62176;48.450;-4.466;2022-08-19T15:17:00;26.18;45.80
73829;SHT30;62176;48.450;-4.466;2022-08-19T15:19:25;26.14;46.19
73829;SHT30;62176;48.450;-4.466;2022-08-19T15:21:50;26.12;45.47
73829;SHT30;62176;48.450;-4.466;2022-08-19T15:24:17;26.01;46.80
73829;SHT30;62176;48.450;-4.466;2022-08-19T15:26:43;25.79;48.32
73829;SHT30;62176;48.450;-4.466;2022-08-19T15:29:09;25.87;46.72
73829;SHT30;62176;48.450;-4.466;2022-08-19T15:31:34;26.12;47.23
73829;SHT30;62176;48.450;-4.466;2022-08-19T15:34:02;26.16;47.45